Portada
METAR-TAF:

METAR-TAF

Aeropuertos :

Base Aérea de Morón

Morón de la Frontera, España

latitud: 37-09N, longitud: 005-37W, altitud: 87 m

Observación

El informe se hizo hace 22 minutos, a las 02:00 UTC
Viento 10 kt del sur-suroeste, variando entre sur y oeste-suroeste
Temperatura 22°C
Humedad 65%
Presión 1014 hPa
Visibilidad 10 km o más
sin nubes por debajo de 1500 m y sin presencia de cumulonimbus.

METAR: LEMO 310200Z 21010KT 170V250 CAVOK 22/15 Q1014 NOSIG

Hora: 04:22 (02:22 UTC)

Pronóstico

El informe se hizo hace 6 horas y 22 minutos, a las 20:00 UTC
Pronóstico válido del 30 a las 21 UTC al 31 a las 21 UTC
Viento 10 kt del suroeste
Visibilidad 10 km o más
sin nubes por debajo de 1500 m y sin presencia de cumulonimbus.
Evolucionando progresivamente
del 31 a las 03 UTC al 31 a las 05 UTC
Viento 7 kt del oeste-noroeste

TAF: LEMO 302000Z 3021/3121 23010KT CAVOK TX33/3115Z TN20/3106Z BECMG 3103/3105 29007KT

Observaciones y pronósticos meteorológicos de más de 4000 aeropuertos (mensajes METAR y TAF).

Los puntos amarillos y rojos representan las estaciones disponibles.

Ponga el ratón en el punto deseado para ver el nombre de la estación.

Haga clic para ver las observaciones y los pronósticos meteorológicos.

Para cambiar el mapa : haga clic en los botones verdes con una cruz de color negro para hacer un zoom, en el botón verde con un guión para alejar o en las flechas verdes para mapas adyacentes.


METAR-TAF: